createdAt,value
2018-11-06T00:01:48.325Z,100762.16
2018-11-06T00:04:16.675Z,100764.80
2018-11-06T00:06:45.073Z,100768.36
2018-11-06T00:09:13.468Z,100756.90
2018-11-06T00:11:41.762Z,100753.25
2018-11-06T00:14:10.091Z,100754.69
2018-11-06T00:16:38.403Z,100745.85
2018-11-06T00:19:06.727Z,100741.70
2018-11-06T00:21:35.164Z,100738.28
2018-11-06T00:24:03.511Z,100729.48
2018-11-06T00:26:31.871Z,100727.54
2018-11-06T00:29:00.257Z,100731.40
2018-11-06T00:31:28.653Z,100737.56
2018-11-06T00:33:57.131Z,100736.55
2018-11-06T00:36:25.518Z,100728.77
2018-11-06T00:38:53.837Z,100726.85
2018-11-06T00:41:22.279Z,100730.08
2018-11-06T00:43:50.645Z,100742.14
2018-11-06T00:46:19.029Z,100742.55
2018-11-06T00:48:47.436Z,100749.32
2018-11-06T00:51:15.790Z,100750.67
2018-11-06T00:53:44.200Z,100759.19
2018-11-06T00:56:12.681Z,100750.90
2018-11-06T00:58:41.137Z,100754.72
2018-11-06T01:01:09.492Z,100753.70
2018-11-06T01:03:43.178Z,100742.51
2018-11-06T01:06:11.596Z,100747.36
2018-11-06T01:08:39.969Z,100742.83
2018-11-06T01:11:08.379Z,100743.00
2018-11-06T01:13:36.709Z,100745.95
2018-11-06T01:16:05.338Z,100733.20
2018-11-06T01:18:33.721Z,100724.73
2018-11-06T01:21:02.061Z,100718.63
2018-11-06T01:23:30.466Z,100720.27
2018-11-06T01:25:58.793Z,100715.41
2018-11-06T01:28:27.109Z,100716.13
2018-11-06T01:30:55.469Z,100726.23
2018-11-06T01:33:23.908Z,100727.25
2018-11-06T01:35:52.224Z,100717.73
2018-11-06T01:38:20.604Z,100723.02
2018-11-06T01:40:49.016Z,100721.87
2018-11-06T01:43:17.313Z,100731.09
2018-11-06T01:45:45.714Z,100724.92
2018-11-06T01:48:14.061Z,100722.78
2018-11-06T01:50:42.478Z,100721.67
2018-11-06T01:53:10.898Z,100723.69
2018-11-06T01:55:39.232Z,100726.33
2018-11-06T01:58:07.769Z,100726.70
2018-11-06T02:00:36.116Z,100728.22
2018-11-06T02:03:04.612Z,100729.53
2018-11-06T02:05:32.890Z,100721.20
2018-11-06T02:08:01.294Z,100733.17
2018-11-06T02:10:29.649Z,100727.00
2018-11-06T02:12:57.943Z,100722.15
2018-11-06T02:15:26.288Z,100725.78
2018-11-06T02:17:54.694Z,100724.53
2018-11-06T02:20:23.044Z,100731.81
2018-11-06T02:22:51.504Z,100727.47
2018-11-06T02:25:19.959Z,100727.97
2018-11-06T02:27:48.257Z,100742.83
2018-11-06T02:30:17.856Z,100734.55
2018-11-06T02:32:46.938Z,100742.13
2018-11-06T02:35:15.223Z,100736.80
2018-11-06T02:37:43.674Z,100739.34
2018-11-06T02:40:13.846Z,100736.30
2018-11-06T02:42:42.599Z,100737.06
2018-11-06T02:45:11.605Z,100735.45
2018-11-06T02:47:40.676Z,100736.05
2018-11-06T02:50:09.670Z,100726.25
2018-11-06T02:52:38.007Z,100730.30
2018-11-06T02:55:07.304Z,100736.66
2018-11-06T02:57:35.610Z,100724.78
2018-11-06T03:00:04.032Z,100722.06
2018-11-06T03:02:32.510Z,100729.84
2018-11-06T03:05:00.844Z,100730.35
2018-11-06T03:07:29.233Z,100743.13
2018-11-06T03:09:57.686Z,100746.36
2018-11-06T03:12:26.029Z,100743.29
2018-11-06T03:14:54.404Z,100730.73
2018-11-06T03:17:22.748Z,100732.25
2018-11-06T03:19:51.160Z,100727.56
2018-11-06T03:22:19.470Z,100731.84
2018-11-06T03:24:47.822Z,100735.13
2018-11-06T03:27:16.170Z,100737.86
2018-11-06T03:29:44.468Z,100745.54
2018-11-06T03:32:12.804Z,100753.97
2018-11-06T03:34:41.096Z,100756.24
2018-11-06T03:37:09.594Z,100760.33
2018-11-06T03:39:37.902Z,100766.84
2018-11-06T03:42:06.264Z,100768.66
2018-11-06T03:44:34.658Z,100768.77
2018-11-06T03:47:03.030Z,100763.30
2018-11-06T03:49:31.375Z,100766.64
2018-11-06T03:51:59.752Z,100770.48
2018-11-06T03:54:28.138Z,100772.04
2018-11-06T03:56:56.657Z,100771.53
2018-11-06T03:59:24.949Z,100763.30
2018-11-06T04:01:53.313Z,100762.09
2018-11-06T04:04:21.640Z,100772.59
2018-11-06T04:06:50.026Z,100772.09
2018-11-06T04:09:18.339Z,100778.71
2018-11-06T04:11:46.637Z,100772.91
2018-11-06T04:14:14.957Z,100772.91
2018-11-06T04:16:43.275Z,100771.89
2018-11-06T04:19:11.591Z,100765.89
2018-11-06T04:21:40.659Z,100774.38
2018-11-06T04:24:10.384Z,100774.83
2018-11-06T04:26:39.267Z,100773.41
2018-11-06T04:29:08.534Z,100772.86
2018-11-06T04:31:37.610Z,100774.34
2018-11-06T04:34:06.039Z,100769.83
2018-11-06T04:36:34.405Z,100767.51
2018-11-06T04:39:02.799Z,100768.56
2018-11-06T04:41:31.100Z,100758.47
2018-11-06T04:43:59.420Z,100759.48
2018-11-06T04:46:27.813Z,100756.30
2018-11-06T04:48:56.284Z,100764.98
2018-11-06T04:51:24.638Z,100767.52
2018-11-06T04:53:57.242Z,100766.51
2018-11-06T04:56:25.604Z,100751.91
2018-11-06T04:58:54.018Z,100757.66
2018-11-06T05:01:22.522Z,100755.89
2018-11-06T05:03:50.838Z,100767.61
2018-11-06T05:06:19.563Z,100782.22
2018-11-06T05:08:48.034Z,100781.41
2018-11-06T05:11:16.332Z,100775.48
2018-11-06T05:13:44.834Z,100781.11
2018-11-06T05:16:13.325Z,100784.83
2018-11-06T05:18:41.658Z,100790.78
2018-11-06T05:21:09.962Z,100792.40
2018-11-06T05:23:38.344Z,100804.83
2018-11-06T05:26:06.679Z,100817.20
2018-11-06T05:28:35.142Z,100817.06
2018-11-06T05:31:03.680Z,100818.89
2018-11-06T05:33:31.970Z,100834.14
2018-11-06T05:36:00.272Z,100830.79
2018-11-06T05:38:28.565Z,100831.62
2018-11-06T05:40:59.856Z,100830.17
2018-11-06T05:43:28.209Z,100831.91
2018-11-06T05:45:56.705Z,100830.28
2018-11-06T05:48:25.014Z,100827.47
2018-11-06T05:50:53.385Z,100838.98
2018-11-06T05:53:21.804Z,100843.61
2018-11-06T05:55:50.309Z,100839.73
2018-11-06T05:58:18.844Z,100838.05
2018-11-06T06:00:47.595Z,100845.79
2018-11-06T06:03:15.924Z,100842.44
2018-11-06T06:05:44.396Z,100841.13
2018-11-06T06:08:12.706Z,100842.44
2018-11-06T06:10:41.083Z,100846.73
2018-11-06T06:13:09.422Z,100844.05
2018-11-06T06:15:37.712Z,100852.94
2018-11-06T06:18:06.111Z,100852.94
2018-11-06T06:20:34.487Z,100851.68
2018-11-06T06:23:02.786Z,100858.02
2018-11-06T06:25:31.125Z,100857.94
2018-11-06T06:27:59.542Z,100852.80
2018-11-06T06:30:27.840Z,100850.73
2018-11-06T06:32:56.186Z,100851.63
2018-11-06T06:35:24.650Z,100852.50
2018-11-06T06:37:53.061Z,100851.49
2018-11-06T06:40:21.430Z,100855.29
2018-11-06T06:42:49.845Z,100859.31
2018-11-06T06:45:19.313Z,100855.48
2018-11-06T06:47:47.820Z,100861.44
2018-11-06T06:50:17.490Z,100864.76
2018-11-06T06:52:46.444Z,100871.30
2018-11-06T06:55:15.539Z,100877.78
2018-11-06T06:57:44.747Z,100886.78
2018-11-06T07:00:15.475Z,100893.05
2018-11-06T07:02:43.822Z,100887.82
2018-11-06T07:05:13.397Z,100898.33
2018-11-06T07:07:42.477Z,100892.77
2018-11-06T07:10:12.658Z,100895.43
2018-11-06T07:12:41.950Z,100902.14
2018-11-06T07:15:12.864Z,100911.36
2018-11-06T07:17:41.495Z,100915.19
2018-11-06T07:20:12.365Z,100920.67
2018-11-06T07:22:40.764Z,100917.20
2018-11-06T07:25:11.009Z,100921.13
2018-11-06T07:27:40.181Z,100920.06
2018-11-06T07:30:10.493Z,100925.25
2018-11-06T07:32:39.366Z,100926.50
2018-11-06T07:35:08.635Z,100933.75
2018-11-06T07:37:37.467Z,100944.68
2018-11-06T07:40:06.741Z,100946.23
2018-11-06T07:42:36.083Z,100939.29
2018-11-06T07:45:04.705Z,100940.98
2018-11-06T07:47:32.999Z,100941.25
2018-11-06T07:50:01.421Z,100942.11
2018-11-06T07:52:29.858Z,100940.29
2018-11-06T07:54:58.165Z,100938.69
2018-11-06T07:57:26.484Z,100937.50
2018-11-06T07:59:54.872Z,100943.06
2018-11-06T08:02:23.215Z,100948.63
2018-11-06T08:04:51.681Z,100950.55
2018-11-06T08:07:20.005Z,100954.61
2018-11-06T08:09:48.365Z,100955.73
2018-11-06T08:12:16.722Z,100958.28
2018-11-06T08:14:45.169Z,100956.81
2018-11-06T08:17:13.521Z,100958.24
2018-11-06T08:19:41.931Z,100967.05
2018-11-06T08:22:10.255Z,100967.55
2018-11-06T08:24:38.614Z,100958.55
2018-11-06T08:27:06.965Z,100952.87
2018-11-06T08:29:35.313Z,100956.23
2018-11-06T08:32:05.191Z,100949.17
2018-11-06T08:34:33.343Z,100940.75
2018-11-06T08:37:01.839Z,100939.44
2018-11-06T08:39:30.181Z,100934.88
2018-11-06T08:41:58.543Z,100940.67
2018-11-06T08:44:26.917Z,100946.80
2018-11-06T08:46:55.265Z,100944.99
2018-11-06T08:49:23.597Z,100949.09
2018-11-06T08:51:52.599Z,100954.80
2018-11-06T08:54:21.005Z,100961.74
2018-11-06T08:56:49.292Z,100957.86
2018-11-06T08:59:17.581Z,100958.63
2018-11-06T09:01:45.938Z,100966.74
2018-11-06T09:04:14.345Z,100971.16
2018-11-06T09:06:42.768Z,100968.98
2018-11-06T09:09:11.402Z,100960.18
2018-11-06T09:11:40.061Z,100967.78
2018-11-06T09:14:08.368Z,100968.44
2018-11-06T09:16:36.952Z,100974.46
2018-11-06T09:19:05.527Z,100969.48
2018-11-06T09:21:33.916Z,100983.93
2018-11-06T09:24:02.293Z,100990.91
2018-11-06T09:26:30.851Z,100985.66
2018-11-06T09:28:59.186Z,100984.39
2018-11-06T09:31:28.508Z,100981.38
2018-11-06T09:33:57.110Z,100984.07
2018-11-06T09:36:25.669Z,100987.43
2018-11-06T09:38:54.007Z,100989.65
2018-11-06T09:41:22.423Z,100991.61
2018-11-06T09:43:50.772Z,100988.73
2018-11-06T09:46:19.119Z,100983.50
2018-11-06T09:48:47.444Z,100987.16
2018-11-06T09:51:15.922Z,100982.56
2018-11-06T09:53:44.254Z,100980.00
2018-11-06T09:56:12.586Z,100986.59
2018-11-06T09:58:40.913Z,100989.13
2018-11-06T10:01:09.256Z,100995.67
2018-11-06T10:03:37.606Z,101001.99
2018-11-06T10:06:06.318Z,101007.41
2018-11-06T10:08:34.635Z,101005.69
2018-11-06T10:11:02.976Z,100997.78
2018-11-06T10:13:31.323Z,100996.94
2018-11-06T10:15:59.710Z,100993.91
2018-11-06T10:18:28.034Z,100991.56
2018-11-06T10:20:56.360Z,100996.53
2018-11-06T10:23:24.806Z,100994.20
2018-11-06T10:25:53.172Z,100988.23
2018-11-06T10:28:21.568Z,100990.77
2018-11-06T10:30:50.137Z,100986.81
2018-11-06T10:33:25.005Z,100981.24
2018-11-06T10:35:53.450Z,100979.63
2018-11-06T10:38:21.735Z,100982.86
2018-11-06T10:40:50.048Z,100981.34
2018-11-06T10:43:18.374Z,100990.19
2018-11-06T10:45:47.051Z,100985.02
2018-11-06T10:48:15.363Z,100981.08
2018-11-06T10:50:43.740Z,100982.52
2018-11-06T10:53:12.116Z,100982.82
2018-11-06T10:55:40.443Z,100988.19
2018-11-06T10:58:08.837Z,100987.27
2018-11-06T11:00:42.534Z,100985.50
2018-11-06T11:03:16.246Z,100987.83
2018-11-06T11:05:44.550Z,100989.64
2018-11-06T11:08:12.857Z,100981.04
2018-11-06T11:10:41.321Z,100970.06
2018-11-06T11:13:09.692Z,100969.86
2018-11-06T11:15:38.013Z,100969.55
2018-11-06T11:18:06.364Z,100966.72
2018-11-06T11:20:34.691Z,100959.47
2018-11-06T11:23:03.007Z,100955.30
2018-11-06T11:25:31.415Z,100953.32
2018-11-06T11:27:59.716Z,100955.70
2018-11-06T11:30:28.062Z,100957.91
2018-11-06T11:32:56.422Z,100962.17
2018-11-06T11:35:24.735Z,100965.49
2018-11-06T11:37:53.164Z,100969.70
2018-11-06T11:40:21.523Z,100966.09
2018-11-06T11:42:49.858Z,100966.09
2018-11-06T11:45:18.474Z,100971.53
2018-11-06T11:47:46.897Z,100970.38
2018-11-06T11:50:15.901Z,100962.52
2018-11-06T11:52:44.385Z,100957.11
2018-11-06T11:55:12.783Z,100950.34
2018-11-06T11:57:41.325Z,100952.16
2018-11-06T12:00:11.973Z,100944.98
2018-11-06T12:02:40.299Z,100938.59
2018-11-06T12:05:09.574Z,100938.64
2018-11-06T12:07:38.024Z,100942.41
2018-11-06T12:10:07.464Z,100940.77
2018-11-06T12:12:35.814Z,100936.98
2018-11-06T12:15:04.195Z,100931.23
2018-11-06T12:17:32.580Z,100929.17
2018-11-06T12:20:00.896Z,100925.90
2018-11-06T12:22:29.216Z,100929.42
2018-11-06T12:24:57.750Z,100927.15
2018-11-06T12:27:25.944Z,100928.87
2018-11-06T12:29:54.298Z,100926.09
2018-11-06T12:32:22.699Z,100919.44
2018-11-06T12:34:51.117Z,100916.61
2018-11-06T12:37:19.437Z,100912.50
2018-11-06T12:39:47.809Z,100914.45
2018-11-06T12:42:16.255Z,100912.09
2018-11-06T12:44:44.612Z,100911.72
2018-11-06T12:47:12.938Z,100910.42
2018-11-06T12:49:41.264Z,100916.66
2018-11-06T12:52:09.671Z,100912.25
2018-11-06T12:54:38.061Z,100908.20
2018-11-06T12:57:06.390Z,100909.91
2018-11-06T12:59:34.768Z,100917.39
2018-11-06T13:02:03.138Z,100918.27
2018-11-06T13:04:31.473Z,100915.27
2018-11-06T13:06:59.765Z,100914.68
2018-11-06T13:09:28.123Z,100915.94
2018-11-06T13:11:56.449Z,100913.05
2018-11-06T13:14:24.743Z,100914.76
2018-11-06T13:16:53.135Z,100907.92
2018-11-06T13:19:21.437Z,100906.02
2018-11-06T13:21:49.725Z,100910.80
2018-11-06T13:24:18.068Z,100915.69
2018-11-06T13:26:46.596Z,100916.38
2018-11-06T13:29:14.916Z,100918.81
2018-11-06T13:31:43.242Z,100917.98
2018-11-06T13:34:11.686Z,100920.70
2018-11-06T13:36:40.022Z,100924.53
2018-11-06T13:39:10.118Z,100917.11
2018-11-06T13:41:38.505Z,100911.16
2018-11-06T13:44:07.165Z,100908.14
2018-11-06T13:46:35.381Z,100909.69
2018-11-06T13:49:03.719Z,100916.52
2018-11-06T13:51:32.063Z,100920.42
2018-11-06T13:54:00.433Z,100919.09
2018-11-06T13:56:28.868Z,100908.96
2018-11-06T13:58:57.204Z,100909.70
2018-11-06T14:01:25.599Z,100914.08
2018-11-06T14:03:53.939Z,100914.39
2018-11-06T14:06:22.371Z,100910.41
2018-11-06T14:08:50.865Z,100908.89
2018-11-06T14:11:19.409Z,100908.20
2018-11-06T14:13:47.805Z,100902.27
2018-11-06T14:16:16.164Z,100901.97
2018-11-06T14:18:44.575Z,100903.07
2018-11-06T14:23:40.323Z,100912.69
2018-11-06T14:26:08.651Z,100909.75
2018-11-06T14:28:36.985Z,100910.85
2018-11-06T14:31:05.517Z,100911.37
2018-11-06T14:33:33.903Z,100912.63
2018-11-06T14:36:02.473Z,100906.23
2018-11-06T14:38:30.821Z,100899.33
2018-11-06T14:40:59.156Z,100903.07
2018-11-06T14:43:27.555Z,100900.36
2018-11-06T14:45:55.919Z,100898.67
2018-11-06T14:48:24.462Z,100898.09
2018-11-06T14:50:52.851Z,100898.31
2018-11-06T14:53:21.262Z,100900.15
2018-11-06T14:55:49.778Z,100896.84
2018-11-06T14:58:18.074Z,100898.22
2018-11-06T15:00:46.395Z,100902.18
2018-11-06T15:03:14.763Z,100901.89
2018-11-06T15:05:43.160Z,100897.98
2018-11-06T15:08:11.420Z,100893.54
2018-11-06T15:10:39.759Z,100894.53
2018-11-06T15:13:08.084Z,100898.22
2018-11-06T15:15:36.469Z,100899.47
2018-11-06T15:18:05.226Z,100897.56
2018-11-06T15:20:39.056Z,100898.30
2018-11-06T15:23:07.327Z,100901.45
2018-11-06T15:25:35.669Z,100900.42
2018-11-06T15:28:04.013Z,100903.14
2018-11-06T15:30:32.422Z,100905.42
2018-11-06T15:33:00.772Z,100906.75
2018-11-06T15:35:29.122Z,100912.33
2018-11-06T15:37:57.461Z,100908.00
2018-11-06T15:40:25.794Z,100907.41
2018-11-06T15:42:54.163Z,100909.17
2018-11-06T15:45:22.505Z,100914.82
2018-11-06T15:47:50.950Z,100919.66
2018-11-06T15:50:20.369Z,100918.34
2018-11-06T15:52:49.460Z,100926.72
2018-11-06T15:55:17.977Z,100921.80
2018-11-06T15:57:46.505Z,100927.54
2018-11-06T16:00:17.141Z,100927.09
2018-11-06T16:02:45.911Z,100924.82
2018-11-06T16:05:14.486Z,100925.85
2018-11-06T16:07:43.002Z,100930.23
2018-11-06T16:10:15.690Z,100943.92
2018-11-06T16:12:44.699Z,100943.16
2018-11-06T16:15:13.791Z,100935.67
2018-11-06T16:17:42.094Z,100935.00
2018-11-06T16:20:13.019Z,100928.17
2018-11-06T16:22:41.712Z,100931.27
2018-11-06T16:25:11.684Z,100939.41
2018-11-06T16:27:40.485Z,100936.98
2018-11-06T16:30:11.968Z,100945.87
2018-11-06T16:32:40.369Z,100944.19
2018-11-06T16:35:10.469Z,100957.41
2018-11-06T16:37:39.263Z,100959.28
2018-11-06T16:40:08.329Z,100955.16
2018-11-06T16:42:36.842Z,100958.61
2018-11-06T16:45:06.688Z,100961.73
2018-11-06T16:47:35.099Z,100961.55
2018-11-06T16:50:03.575Z,100975.58
2018-11-06T16:52:31.921Z,100976.75
2018-11-06T16:55:00.233Z,100974.25
2018-11-06T16:57:28.830Z,100972.48
2018-11-06T16:59:57.281Z,100981.30
2018-11-06T17:02:25.687Z,100986.80
2018-11-06T17:04:54.104Z,100987.46
2018-11-06T17:07:22.523Z,100981.36
2018-11-06T17:09:50.877Z,100975.56
2018-11-06T17:12:19.302Z,100982.03
2018-11-06T17:14:47.659Z,100978.20
2018-11-06T17:17:16.111Z,100984.62
2018-11-06T17:19:44.471Z,100982.42
2018-11-06T17:22:12.874Z,100976.33
2018-11-06T17:24:41.298Z,100978.53
2018-11-06T17:27:09.792Z,100985.80
2018-11-06T17:29:38.357Z,100976.55
2018-11-06T17:32:06.704Z,100980.43
2018-11-06T17:34:35.215Z,100971.48
2018-11-06T17:37:03.692Z,100974.12
2018-11-06T17:39:32.138Z,100979.27
2018-11-06T17:42:00.661Z,100975.14
2018-11-06T17:44:29.054Z,100968.46
2018-11-06T17:46:57.515Z,100966.92
2018-11-06T17:49:25.910Z,100957.67
2018-11-06T17:51:54.207Z,100958.48
2018-11-06T17:54:22.672Z,100962.87
2018-11-06T17:56:51.061Z,100961.64
2018-11-06T17:59:19.878Z,100971.18
2018-11-06T18:01:48.274Z,100976.17
2018-11-06T18:04:16.816Z,100971.91
2018-11-06T18:06:45.130Z,100973.02
2018-11-06T18:09:13.982Z,100978.14
2018-11-06T18:11:42.441Z,100961.72
2018-11-06T18:14:10.808Z,100963.77
2018-11-06T18:16:39.178Z,100967.22
2018-11-06T18:19:07.520Z,100970.14
2018-11-06T18:21:35.863Z,100965.47
2018-11-06T18:24:04.270Z,100966.06
2018-11-06T18:26:32.591Z,100967.49
2018-11-06T18:29:01.100Z,100970.75
2018-11-06T18:31:29.483Z,100972.37
2018-11-06T18:33:58.755Z,100968.41
2018-11-06T18:36:27.240Z,100968.92
2018-11-06T18:38:55.630Z,100966.20
2018-11-06T18:41:23.949Z,100967.79
2018-11-06T18:43:52.354Z,100967.20
2018-11-06T18:46:20.773Z,100969.41
2018-11-06T18:48:49.168Z,100976.02
2018-11-06T18:51:17.572Z,100977.77
2018-11-06T18:53:46.041Z,100972.48
2018-11-06T18:56:14.389Z,100970.45
2018-11-06T18:58:42.746Z,100963.77
2018-11-06T19:01:11.330Z,100968.94
2018-11-06T19:03:39.687Z,100966.41
2018-11-06T19:06:08.083Z,100974.12
2018-11-06T19:08:36.448Z,100963.18
2018-11-06T19:11:04.821Z,100964.00
2018-11-06T19:13:33.169Z,100953.15
2018-11-06T19:16:01.539Z,100958.30
2018-11-06T19:18:29.967Z,100955.25
2018-11-06T19:20:58.516Z,100954.23
2018-11-06T19:23:26.912Z,100954.23
2018-11-06T19:25:55.287Z,100953.20
2018-11-06T19:28:23.624Z,100956.89
2018-11-06T19:30:52.121Z,100955.87
2018-11-06T19:33:20.487Z,100953.58
2018-11-06T19:35:48.870Z,100954.59
2018-11-06T19:38:17.243Z,100951.55
2018-11-06T19:40:45.735Z,100957.64
2018-11-06T19:43:14.218Z,100948.18
2018-11-06T19:45:42.606Z,100946.48
2018-11-06T19:48:11.081Z,100946.91
2018-11-06T19:50:39.544Z,100952.92
2018-11-06T19:53:08.037Z,100948.06
2018-11-06T19:55:36.429Z,100942.19
2018-11-06T19:58:05.134Z,100941.59
2018-11-06T20:00:33.558Z,100946.31
2018-11-06T20:03:01.964Z,100948.74
2018-11-06T20:05:30.560Z,100940.61
2018-11-06T20:07:59.116Z,100942.82
2018-11-06T20:10:27.870Z,100946.48
2018-11-06T20:12:56.823Z,100938.43
2018-11-06T20:15:25.255Z,100941.58
2018-11-06T20:17:54.078Z,100947.08
2018-11-06T20:20:24.928Z,100941.72
2018-11-06T20:22:53.618Z,100931.74
2018-11-06T20:25:22.458Z,100928.52
2018-11-06T20:27:51.086Z,100934.30
2018-11-06T20:30:21.480Z,100938.61
2018-11-06T20:32:50.419Z,100937.59
2018-11-06T20:35:19.232Z,100934.52
2018-11-06T20:37:47.846Z,100931.71
2018-11-06T20:40:19.370Z,100928.39
2018-11-06T20:42:48.647Z,100923.62
2018-11-06T20:45:18.539Z,100919.98
2018-11-06T20:47:47.560Z,100916.53
2018-11-06T20:50:18.474Z,100907.28
2018-11-06T20:52:47.155Z,100911.47
2018-11-06T20:55:16.472Z,100916.75
2018-11-06T20:57:45.488Z,100917.17
2018-11-06T21:00:20.256Z,100918.11
2018-11-06T21:02:49.488Z,100910.70
2018-11-06T21:05:18.362Z,100907.87
2018-11-06T21:07:47.574Z,100911.13
2018-11-06T21:10:17.523Z,100913.57
2018-11-06T21:12:46.478Z,100910.34
2018-11-06T21:15:15.074Z,100905.36
2018-11-06T21:17:44.184Z,100903.10
2018-11-06T21:20:13.741Z,100900.59
2018-11-06T21:22:42.386Z,100899.70
2018-11-06T21:25:11.921Z,100906.16
2018-11-06T21:27:41.217Z,100893.19
2018-11-06T21:30:11.601Z,100900.00
2018-11-06T21:32:41.734Z,100896.77
2018-11-06T21:35:10.643Z,100893.10
2018-11-06T21:37:39.869Z,100893.83
2018-11-06T21:40:12.288Z,100891.91
2018-11-06T21:42:41.002Z,100884.51
2018-11-06T21:45:10.658Z,100889.06
2018-11-06T21:47:39.778Z,100888.37
2018-11-06T21:50:10.313Z,100899.45
2018-11-06T21:52:39.000Z,100892.84
2018-11-06T21:55:08.867Z,100890.46
2018-11-06T21:57:37.920Z,100895.06
2018-11-06T22:00:09.511Z,100891.83
2018-11-06T22:02:38.709Z,100886.64
2018-11-06T22:05:09.426Z,100880.98
2018-11-06T22:07:37.983Z,100885.11
2018-11-06T22:10:07.719Z,100885.03
2018-11-06T22:12:36.335Z,100880.48
2018-11-06T22:15:05.172Z,100884.27
2018-11-06T22:17:33.541Z,100885.20
2018-11-06T22:20:01.975Z,100886.72
2018-11-06T22:22:30.329Z,100885.28
2018-11-06T22:24:58.983Z,100887.87
2018-11-06T22:27:27.714Z,100884.13
2018-11-06T22:29:56.152Z,100873.20
2018-11-06T22:32:24.540Z,100875.03
2018-11-06T22:34:53.145Z,100874.44
2018-11-06T22:37:21.697Z,100876.21
2018-11-06T22:39:50.149Z,100877.05
2018-11-06T22:42:18.567Z,100869.35
2018-11-06T22:44:47.363Z,100869.48
2018-11-06T22:47:15.825Z,100871.73
2018-11-06T22:49:44.270Z,100871.03
2018-11-06T22:52:12.686Z,100864.98
2018-11-06T22:54:41.228Z,100875.03
2018-11-06T22:57:09.577Z,100864.91
2018-11-06T22:59:37.980Z,100861.67
2018-11-06T23:02:06.391Z,100866.22
2018-11-06T23:04:34.811Z,100866.66
2018-11-06T23:07:03.316Z,100856.70
2018-11-06T23:09:31.652Z,100865.84
2018-11-06T23:12:00.060Z,100866.06
2018-11-06T23:14:28.410Z,100860.87
2018-11-06T23:16:56.734Z,100863.70
2018-11-06T23:19:25.075Z,100853.67
2018-11-06T23:21:53.426Z,100855.00
2018-11-06T23:24:21.803Z,100857.97
2018-11-06T23:26:50.146Z,100859.16
2018-11-06T23:29:18.566Z,100860.10
2018-11-06T23:31:47.125Z,100856.74
2018-11-06T23:34:15.405Z,100858.23
2018-11-06T23:36:43.764Z,100862.57
2018-11-06T23:39:12.177Z,100871.70
2018-11-06T23:41:40.462Z,100869.08
2018-11-06T23:44:08.794Z,100876.17
2018-11-06T23:46:37.177Z,100877.07
2018-11-06T23:49:05.641Z,100880.27
2018-11-06T23:51:34.083Z,100879.45
2018-11-06T23:54:02.430Z,100880.05
2018-11-06T23:56:30.825Z,100877.84
2018-11-06T23:58:59.094Z,100884.97
